sensor_id;sensor_type;location;lat;lon;timestamp;P1;durP1;ratioP1;P2;durP2;ratioP2
17662;SDS011;8950;56.892;15.090;2023-05-14T00:01:27;50.00;;;16.85;;
17662;SDS011;8950;56.892;15.090;2023-05-14T00:03:53;58.33;;;18.05;;
17662;SDS011;8950;56.892;15.090;2023-05-14T00:06:19;51.25;;;17.30;;
17662;SDS011;8950;56.892;15.090;2023-05-14T00:08:46;41.92;;;15.73;;
17662;SDS011;8950;56.892;15.090;2023-05-14T00:11:12;68.97;;;31.92;;
17662;SDS011;8950;56.892;15.090;2023-05-14T00:13:40;49.65;;;23.83;;
17662;SDS011;8950;56.892;15.090;2023-05-14T00:16:07;28.17;;;12.88;;
17662;SDS011;8950;56.892;15.090;2023-05-14T00:18:33;51.65;;;21.05;;
17662;SDS011;8950;56.892;15.090;2023-05-14T00:21:00;46.10;;;22.38;;
17662;SDS011;8950;56.892;15.090;2023-05-14T00:23:26;25.70;;;14.20;;
17662;SDS011;8950;56.892;15.090;2023-05-14T00:25:52;38.47;;;18.20;;
17662;SDS011;8950;56.892;15.090;2023-05-14T00:28:19;34.80;;;16.83;;
17662;SDS011;8950;56.892;15.090;2023-05-14T00:30:47;23.88;;;11.63;;
17662;SDS011;8950;56.892;15.090;2023-05-14T00:33:14;15.85;;;9.88;;
17662;SDS011;8950;56.892;15.090;2023-05-14T00:35:40;17.85;;;9.05;;
17662;SDS011;8950;56.892;15.090;2023-05-14T00:38:06;11.73;;;8.43;;
17662;SDS011;8950;56.892;15.090;2023-05-14T00:40:33;14.75;;;11.02;;
17662;SDS011;8950;56.892;15.090;2023-05-14T00:42:59;23.90;;;14.85;;
17662;SDS011;8950;56.892;15.090;2023-05-14T00:45:26;23.40;;;16.52;;
17662;SDS011;8950;56.892;15.090;2023-05-14T00:47:54;26.30;;;16.77;;
17662;SDS011;8950;56.892;15.090;2023-05-14T00:50:20;10.40;;;8.05;;
17662;SDS011;8950;56.892;15.090;2023-05-14T00:52:47;8.48;;;5.50;;
17662;SDS011;8950;56.892;15.090;2023-05-14T00:55:15;7.78;;;6.70;;
17662;SDS011;8950;56.892;15.090;2023-05-14T00:57:42;7.65;;;6.55;;
17662;SDS011;8950;56.892;15.090;2023-05-14T01:00:09;8.82;;;6.82;;
17662;SDS011;8950;56.892;15.090;2023-05-14T01:02:35;9.45;;;6.50;;
17662;SDS011;8950;56.892;15.090;2023-05-14T01:05:03;6.95;;;5.30;;
17662;SDS011;8950;56.892;15.090;2023-05-14T01:07:32;5.70;;;4.90;;
17662;SDS011;8950;56.892;15.090;2023-05-14T01:10:02;4.20;;;3.90;;
17662;SDS011;8950;56.892;15.090;2023-05-14T01:12:32;6.63;;;4.80;;
17662;SDS011;8950;56.892;15.090;2023-05-14T01:15:01;4.85;;;4.32;;
17662;SDS011;8950;56.892;15.090;2023-05-14T01:17:30;4.15;;;3.75;;
17662;SDS011;8950;56.892;15.090;2023-05-14T01:19:57;4.70;;;3.83;;
17662;SDS011;8950;56.892;15.090;2023-05-14T01:22:26;4.00;;;3.60;;
17662;SDS011;8950;56.892;15.090;2023-05-14T01:24:52;6.35;;;3.88;;
17662;SDS011;8950;56.892;15.090;2023-05-14T01:27:21;5.20;;;4.15;;
17662;SDS011;8950;56.892;15.090;2023-05-14T01:29:51;3.78;;;3.47;;
17662;SDS011;8950;56.892;15.090;2023-05-14T01:32:18;3.85;;;3.55;;
17662;SDS011;8950;56.892;15.090;2023-05-14T01:34:47;6.13;;;4.05;;
17662;SDS011;8950;56.892;15.090;2023-05-14T01:37:15;3.50;;;3.20;;
17662;SDS011;8950;56.892;15.090;2023-05-14T01:39:43;5.63;;;3.70;;
17662;SDS011;8950;56.892;15.090;2023-05-14T01:42:10;4.10;;;3.70;;
17662;SDS011;8950;56.892;15.090;2023-05-14T01:44:37;3.95;;;3.65;;
17662;SDS011;8950;56.892;15.090;2023-05-14T01:47:04;4.93;;;3.58;;
17662;SDS011;8950;56.892;15.090;2023-05-14T01:49:30;3.70;;;3.40;;
17662;SDS011;8950;56.892;15.090;2023-05-14T01:51:57;3.95;;;3.65;;
17662;SDS011;8950;56.892;15.090;2023-05-14T01:54:23;3.88;;;3.58;;
17662;SDS011;8950;56.892;15.090;2023-05-14T01:56:51;8.50;;;3.70;;
17662;SDS011;8950;56.892;15.090;2023-05-14T01:59:18;4.22;;;3.90;;
17662;SDS011;8950;56.892;15.090;2023-05-14T02:01:44;4.00;;;3.58;;
17662;SDS011;8950;56.892;15.090;2023-05-14T02:04:11;4.60;;;3.60;;
17662;SDS011;8950;56.892;15.090;2023-05-14T02:06:38;4.25;;;3.45;;
17662;SDS011;8950;56.892;15.090;2023-05-14T02:09:04;4.30;;;4.00;;
17662;SDS011;8950;56.892;15.090;2023-05-14T02:11:31;5.00;;;3.70;;
17662;SDS011;8950;56.892;15.090;2023-05-14T02:13:58;4.05;;;3.75;;
17662;SDS011;8950;56.892;15.090;2023-05-14T02:16:25;4.90;;;3.58;;
17662;SDS011;8950;56.892;15.090;2023-05-14T02:18:51;4.45;;;3.70;;
17662;SDS011;8950;56.892;15.090;2023-05-14T02:21:17;4.78;;;3.65;;
17662;SDS011;8950;56.892;15.090;2023-05-14T02:23:44;4.25;;;3.80;;
17662;SDS011;8950;56.892;15.090;2023-05-14T02:26:12;3.53;;;3.22;;
17662;SDS011;8950;56.892;15.090;2023-05-14T02:28:38;4.03;;;3.63;;
17662;SDS011;8950;56.892;15.090;2023-05-14T02:31:06;3.90;;;3.47;;
17662;SDS011;8950;56.892;15.090;2023-05-14T02:33:32;4.10;;;3.63;;
17662;SDS011;8950;56.892;15.090;2023-05-14T02:35:59;4.00;;;3.65;;
17662;SDS011;8950;56.892;15.090;2023-05-14T02:38:25;3.90;;;3.30;;
17662;SDS011;8950;56.892;15.090;2023-05-14T02:40:52;4.53;;;4.18;;
17662;SDS011;8950;56.892;15.090;2023-05-14T02:43:18;3.88;;;3.55;;
17662;SDS011;8950;56.892;15.090;2023-05-14T02:45:44;4.10;;;3.70;;
17662;SDS011;8950;56.892;15.090;2023-05-14T02:48:12;4.28;;;3.88;;
17662;SDS011;8950;56.892;15.090;2023-05-14T02:50:39;5.25;;;4.22;;
17662;SDS011;8950;56.892;15.090;2023-05-14T02:53:05;3.97;;;3.65;;
17662;SDS011;8950;56.892;15.090;2023-05-14T02:55:32;5.78;;;3.53;;
17662;SDS011;8950;56.892;15.090;2023-05-14T02:57:58;4.32;;;3.80;;
17662;SDS011;8950;56.892;15.090;2023-05-14T03:00:25;6.07;;;3.80;;
17662;SDS011;8950;56.892;15.090;2023-05-14T03:02:51;4.13;;;3.72;;
17662;SDS011;8950;56.892;15.090;2023-05-14T03:05:19;3.63;;;3.33;;
17662;SDS011;8950;56.892;15.090;2023-05-14T03:07:45;4.43;;;4.00;;
17662;SDS011;8950;56.892;15.090;2023-05-14T03:10:12;4.00;;;3.60;;
17662;SDS011;8950;56.892;15.090;2023-05-14T03:12:38;4.07;;;3.72;;
17662;SDS011;8950;56.892;15.090;2023-05-14T03:15:05;3.78;;;3.47;;
17662;SDS011;8950;56.892;15.090;2023-05-14T03:17:31;4.00;;;3.60;;
17662;SDS011;8950;56.892;15.090;2023-05-14T03:19:58;4.95;;;3.70;;
17662;SDS011;8950;56.892;15.090;2023-05-14T03:22:26;3.88;;;3.20;;
17662;SDS011;8950;56.892;15.090;2023-05-14T03:24:52;4.05;;;3.63;;
17662;SDS011;8950;56.892;15.090;2023-05-14T03:27:19;3.90;;;3.50;;
17662;SDS011;8950;56.892;15.090;2023-05-14T03:29:45;4.15;;;3.38;;
17662;SDS011;8950;56.892;15.090;2023-05-14T03:32:11;3.78;;;3.38;;
17662;SDS011;8950;56.892;15.090;2023-05-14T03:34:38;4.70;;;3.55;;
17662;SDS011;8950;56.892;15.090;2023-05-14T03:37:04;5.00;;;3.03;;
17662;SDS011;8950;56.892;15.090;2023-05-14T03:39:32;3.10;;;2.90;;
17662;SDS011;8950;56.892;15.090;2023-05-14T03:41:58;4.50;;;3.42;;
17662;SDS011;8950;56.892;15.090;2023-05-14T03:44:25;4.28;;;3.42;;
17662;SDS011;8950;56.892;15.090;2023-05-14T03:46:51;3.35;;;3.10;;
17662;SDS011;8950;56.892;15.090;2023-05-14T03:49:17;3.92;;;3.17;;
17662;SDS011;8950;56.892;15.090;2023-05-14T03:51:44;4.05;;;3.00;;
17662;SDS011;8950;56.892;15.090;2023-05-14T03:54:10;4.22;;;3.30;;
17662;SDS011;8950;56.892;15.090;2023-05-14T03:56:38;3.30;;;3.05;;
17662;SDS011;8950;56.892;15.090;2023-05-14T03:59:04;3.35;;;3.08;;
17662;SDS011;8950;56.892;15.090;2023-05-14T04:01:31;3.63;;;3.33;;
17662;SDS011;8950;56.892;15.090;2023-05-14T04:03:57;3.10;;;2.88;;
17662;SDS011;8950;56.892;15.090;2023-05-14T04:06:23;3.60;;;3.10;;
17662;SDS011;8950;56.892;15.090;2023-05-14T04:08:50;3.35;;;3.05;;
17662;SDS011;8950;56.892;15.090;2023-05-14T04:11:16;4.47;;;2.97;;
17662;SDS011;8950;56.892;15.090;2023-05-14T04:13:44;3.80;;;2.97;;
17662;SDS011;8950;56.892;15.090;2023-05-14T04:16:10;3.83;;;3.25;;
17662;SDS011;8950;56.892;15.090;2023-05-14T04:18:37;3.47;;;2.75;;
17662;SDS011;8950;56.892;15.090;2023-05-14T04:21:03;4.50;;;2.92;;
17662;SDS011;8950;56.892;15.090;2023-05-14T04:23:30;3.25;;;2.92;;
17662;SDS011;8950;56.892;15.090;2023-05-14T04:25:57;3.10;;;2.90;;
17662;SDS011;8950;56.892;15.090;2023-05-14T04:28:23;3.63;;;3.10;;
17662;SDS011;8950;56.892;15.090;2023-05-14T04:30:51;5.55;;;2.90;;
17662;SDS011;8950;56.892;15.090;2023-05-14T04:33:17;3.55;;;2.80;;
17662;SDS011;8950;56.892;15.090;2023-05-14T04:35:44;3.50;;;3.08;;
17662;SDS011;8950;56.892;15.090;2023-05-14T04:38:10;4.93;;;2.75;;
17662;SDS011;8950;56.892;15.090;2023-05-14T04:40:38;4.80;;;3.05;;
17662;SDS011;8950;56.892;15.090;2023-05-14T04:43:05;4.03;;;2.92;;
17662;SDS011;8950;56.892;15.090;2023-05-14T04:45:31;3.40;;;3.00;;
17662;SDS011;8950;56.892;15.090;2023-05-14T04:47:59;3.75;;;3.17;;
17662;SDS011;8950;56.892;15.090;2023-05-14T04:50:26;4.85;;;3.03;;
17662;SDS011;8950;56.892;15.090;2023-05-14T04:52:52;3.17;;;2.80;;
17662;SDS011;8950;56.892;15.090;2023-05-14T04:55:19;2.90;;;2.70;;
17662;SDS011;8950;56.892;15.090;2023-05-14T04:57:46;4.85;;;3.28;;
17662;SDS011;8950;56.892;15.090;2023-05-14T05:00:13;4.03;;;2.90;;
17662;SDS011;8950;56.892;15.090;2023-05-14T05:02:40;3.08;;;2.78;;
17662;SDS011;8950;56.892;15.090;2023-05-14T05:05:08;3.65;;;2.92;;
17662;SDS011;8950;56.892;15.090;2023-05-14T05:07:34;4.35;;;2.85;;
17662;SDS011;8950;56.892;15.090;2023-05-14T05:10:01;4.13;;;3.15;;
17662;SDS011;8950;56.892;15.090;2023-05-14T05:12:27;3.88;;;3.10;;
17662;SDS011;8950;56.892;15.090;2023-05-14T05:14:54;3.33;;;3.03;;
17662;SDS011;8950;56.892;15.090;2023-05-14T05:17:20;5.20;;;2.88;;
17662;SDS011;8950;56.892;15.090;2023-05-14T05:19:47;3.95;;;3.10;;
17662;SDS011;8950;56.892;15.090;2023-05-14T05:22:15;3.28;;;2.97;;
17662;SDS011;8950;56.892;15.090;2023-05-14T05:24:41;3.17;;;2.53;;
17662;SDS011;8950;56.892;15.090;2023-05-14T05:27:07;3.15;;;2.80;;
17662;SDS011;8950;56.892;15.090;2023-05-14T05:29:34;4.03;;;3.03;;
17662;SDS011;8950;56.892;15.090;2023-05-14T05:32:00;4.15;;;2.88;;
17662;SDS011;8950;56.892;15.090;2023-05-14T05:34:27;8.85;;;3.25;;
17662;SDS011;8950;56.892;15.090;2023-05-14T05:36:53;3.45;;;3.17;;
17662;SDS011;8950;56.892;15.090;2023-05-14T05:39:21;2.80;;;2.60;;
17662;SDS011;8950;56.892;15.090;2023-05-14T05:41:48;5.43;;;3.00;;
17662;SDS011;8950;56.892;15.090;2023-05-14T05:44:14;4.50;;;3.00;;
17662;SDS011;8950;56.892;15.090;2023-05-14T05:46:40;3.38;;;3.00;;
17662;SDS011;8950;56.892;15.090;2023-05-14T05:49:07;3.38;;;2.65;;
17662;SDS011;8950;56.892;15.090;2023-05-14T05:51:33;3.28;;;2.97;;
17662;SDS011;8950;56.892;15.090;2023-05-14T05:54:00;3.97;;;2.83;;
17662;SDS011;8950;56.892;15.090;2023-05-14T05:56:27;3.15;;;2.88;;
17662;SDS011;8950;56.892;15.090;2023-05-14T05:58:54;6.00;;;3.00;;
17662;SDS011;8950;56.892;15.090;2023-05-14T06:01:21;4.43;;;2.60;;
17662;SDS011;8950;56.892;15.090;2023-05-14T06:03:47;3.10;;;2.78;;
17662;SDS011;8950;56.892;15.090;2023-05-14T06:06:13;3.45;;;3.08;;
17662;SDS011;8950;56.892;15.090;2023-05-14T06:08:40;4.53;;;2.90;;
17662;SDS011;8950;56.892;15.090;2023-05-14T06:11:07;4.07;;;2.80;;
17662;SDS011;8950;56.892;15.090;2023-05-14T06:13:34;3.25;;;2.78;;
17662;SDS011;8950;56.892;15.090;2023-05-14T06:16:01;3.70;;;2.85;;
17662;SDS011;8950;56.892;15.090;2023-05-14T06:18:27;3.08;;;2.88;;
17662;SDS011;8950;56.892;15.090;2023-05-14T06:20:54;3.22;;;2.50;;
17662;SDS011;8950;56.892;15.090;2023-05-14T06:23:21;2.80;;;2.60;;
17662;SDS011;8950;56.892;15.090;2023-05-14T06:25:48;2.90;;;2.60;;
17662;SDS011;8950;56.892;15.090;2023-05-14T06:28:15;3.47;;;2.85;;
17662;SDS011;8950;56.892;15.090;2023-05-14T06:30:42;3.00;;;2.53;;
17662;SDS011;8950;56.892;15.090;2023-05-14T06:33:09;2.95;;;2.53;;
17662;SDS011;8950;56.892;15.090;2023-05-14T06:35:37;3.40;;;2.80;;
17662;SDS011;8950;56.892;15.090;2023-05-14T06:38:03;3.80;;;2.70;;
17662;SDS011;8950;56.892;15.090;2023-05-14T06:40:30;4.68;;;2.65;;
17662;SDS011;8950;56.892;15.090;2023-05-14T06:42:56;4.28;;;3.03;;
17662;SDS011;8950;56.892;15.090;2023-05-14T06:45:23;3.83;;;2.70;;
17662;SDS011;8950;56.892;15.090;2023-05-14T06:47:50;4.30;;;2.55;;
17662;SDS011;8950;56.892;15.090;2023-05-14T06:50:17;4.80;;;2.55;;
17662;SDS011;8950;56.892;15.090;2023-05-14T06:52:43;3.38;;;2.50;;
17662;SDS011;8950;56.892;15.090;2023-05-14T06:55:10;5.07;;;2.70;;
17662;SDS011;8950;56.892;15.090;2023-05-14T06:57:37;3.08;;;2.70;;
17662;SDS011;8950;56.892;15.090;2023-05-14T07:00:04;3.83;;;2.70;;
17662;SDS011;8950;56.892;15.090;2023-05-14T07:02:30;3.35;;;2.60;;
17662;SDS011;8950;56.892;15.090;2023-05-14T07:04:58;2.92;;;2.60;;
17662;SDS011;8950;56.892;15.090;2023-05-14T07:07:24;3.03;;;2.67;;
17662;SDS011;8950;56.892;15.090;2023-05-14T07:09:51;2.80;;;2.60;;
17662;SDS011;8950;56.892;15.090;2023-05-14T07:12:18;3.90;;;2.45;;
17662;SDS011;8950;56.892;15.090;2023-05-14T07:14:44;5.82;;;2.60;;
17662;SDS011;8950;56.892;15.090;2023-05-14T07:17:11;4.18;;;2.65;;
17662;SDS011;8950;56.892;15.090;2023-05-14T07:19:37;2.95;;;2.70;;
17662;SDS011;8950;56.892;15.090;2023-05-14T07:22:05;2.80;;;2.60;;
17662;SDS011;8950;56.892;15.090;2023-05-14T07:24:31;3.85;;;2.83;;
17662;SDS011;8950;56.892;15.090;2023-05-14T07:26:57;4.95;;;2.80;;
17662;SDS011;8950;56.892;15.090;2023-05-14T07:29:25;3.47;;;2.90;;
17662;SDS011;8950;56.892;15.090;2023-05-14T07:31:51;3.85;;;2.65;;
17662;SDS011;8950;56.892;15.090;2023-05-14T07:34:17;3.75;;;2.90;;
17662;SDS011;8950;56.892;15.090;2023-05-14T07:36:44;3.13;;;2.45;;
17662;SDS011;8950;56.892;15.090;2023-05-14T07:39:12;3.05;;;2.70;;
17662;SDS011;8950;56.892;15.090;2023-05-14T07:41:38;3.95;;;2.70;;
17662;SDS011;8950;56.892;15.090;2023-05-14T07:44:05;3.10;;;2.63;;
17662;SDS011;8950;56.892;15.090;2023-05-14T07:46:31;4.95;;;2.78;;
17662;SDS011;8950;56.892;15.090;2023-05-14T07:48:57;3.55;;;2.80;;
17662;SDS011;8950;56.892;15.090;2023-05-14T07:51:24;3.15;;;2.65;;
17662;SDS011;8950;56.892;15.090;2023-05-14T07:53:52;2.70;;;2.50;;
17662;SDS011;8950;56.892;15.090;2023-05-14T07:56:21;2.75;;;2.55;;
17662;SDS011;8950;56.892;15.090;2023-05-14T07:58:47;4.55;;;3.22;;
17662;SDS011;8950;56.892;15.090;2023-05-14T08:01:14;4.57;;;2.83;;
17662;SDS011;8950;56.892;15.090;2023-05-14T08:03:40;2.58;;;2.38;;
17662;SDS011;8950;56.892;15.090;2023-05-14T08:06:07;5.47;;;2.70;;
17662;SDS011;8950;56.892;15.090;2023-05-14T08:08:33;4.70;;;2.72;;
17662;SDS011;8950;56.892;15.090;2023-05-14T08:11:00;2.97;;;2.75;;
17662;SDS011;8950;56.892;15.090;2023-05-14T08:13:28;2.97;;;2.50;;
17662;SDS011;8950;56.892;15.090;2023-05-14T08:15:54;3.70;;;2.72;;
17662;SDS011;8950;56.892;15.090;2023-05-14T08:18:21;3.20;;;2.35;;
17662;SDS011;8950;56.892;15.090;2023-05-14T08:20:47;3.45;;;2.78;;
17662;SDS011;8950;56.892;15.090;2023-05-14T08:23:14;2.85;;;2.47;;
17662;SDS011;8950;56.892;15.090;2023-05-14T08:25:40;3.55;;;2.72;;
17662;SDS011;8950;56.892;15.090;2023-05-14T08:28:07;5.60;;;3.10;;
17662;SDS011;8950;56.892;15.090;2023-05-14T08:30:35;7.03;;;3.10;;
17662;SDS011;8950;56.892;15.090;2023-05-14T08:33:02;4.25;;;3.05;;
17662;SDS011;8950;56.892;15.090;2023-05-14T08:35:28;3.60;;;2.67;;
17662;SDS011;8950;56.892;15.090;2023-05-14T08:37:55;3.30;;;3.00;;
17662;SDS011;8950;56.892;15.090;2023-05-14T08:40:22;7.18;;;2.97;;
17662;SDS011;8950;56.892;15.090;2023-05-14T08:42:48;3.83;;;2.90;;
17662;SDS011;8950;56.892;15.090;2023-05-14T08:45:16;4.30;;;2.97;;
17662;SDS011;8950;56.892;15.090;2023-05-14T08:47:45;4.35;;;2.80;;
17662;SDS011;8950;56.892;15.090;2023-05-14T08:50:12;4.18;;;2.90;;
17662;SDS011;8950;56.892;15.090;2023-05-14T08:52:39;5.80;;;2.85;;
17662;SDS011;8950;56.892;15.090;2023-05-14T08:55:05;3.22;;;2.70;;
17662;SDS011;8950;56.892;15.090;2023-05-14T08:57:32;3.08;;;2.80;;
17662;SDS011;8950;56.892;15.090;2023-05-14T08:59:59;4.32;;;3.05;;
17662;SDS011;8950;56.892;15.090;2023-05-14T09:02:27;5.25;;;3.00;;
17662;SDS011;8950;56.892;15.090;2023-05-14T09:04:56;7.05;;;3.08;;
17662;SDS011;8950;56.892;15.090;2023-05-14T09:07:22;3.72;;;2.33;;
17662;SDS011;8950;56.892;15.090;2023-05-14T09:09:49;6.47;;;3.00;;
17662;SDS011;8950;56.892;15.090;2023-05-14T09:12:16;6.07;;;4.20;;
17662;SDS011;8950;56.892;15.090;2023-05-14T09:14:42;5.03;;;2.92;;
17662;SDS011;8950;56.892;15.090;2023-05-14T09:17:09;8.20;;;3.28;;
17662;SDS011;8950;56.892;15.090;2023-05-14T09:19:36;3.30;;;3.00;;
17662;SDS011;8950;56.892;15.090;2023-05-14T09:22:06;3.35;;;2.90;;
17662;SDS011;8950;56.892;15.090;2023-05-14T09:24:33;6.88;;;3.38;;
17662;SDS011;8950;56.892;15.090;2023-05-14T09:27:00;6.20;;;2.78;;
17662;SDS011;8950;56.892;15.090;2023-05-14T09:29:28;4.38;;;2.45;;
17662;SDS011;8950;56.892;15.090;2023-05-14T09:31:55;3.70;;;2.90;;
17662;SDS011;8950;56.892;15.090;2023-05-14T09:34:22;5.05;;;3.25;;
17662;SDS011;8950;56.892;15.090;2023-05-14T09:36:49;3.53;;;2.95;;
17662;SDS011;8950;56.892;15.090;2023-05-14T09:39:17;4.38;;;2.83;;
17662;SDS011;8950;56.892;15.090;2023-05-14T09:41:44;3.90;;;2.75;;
17662;SDS011;8950;56.892;15.090;2023-05-14T09:44:11;3.13;;;2.78;;
17662;SDS011;8950;56.892;15.090;2023-05-14T09:46:37;3.92;;;2.90;;
17662;SDS011;8950;56.892;15.090;2023-05-14T09:49:04;7.70;;;2.65;;
17662;SDS011;8950;56.892;15.090;2023-05-14T09:51:30;11.20;;;3.88;;
17662;SDS011;8950;56.892;15.090;2023-05-14T09:53:56;4.38;;;3.13;;
17662;SDS011;8950;56.892;15.090;2023-05-14T09:56:25;4.60;;;3.35;;
17662;SDS011;8950;56.892;15.090;2023-05-14T09:58:51;7.45;;;3.33;;
17662;SDS011;8950;56.892;15.090;2023-05-14T10:01:19;6.30;;;2.80;;
17662;SDS011;8950;56.892;15.090;2023-05-14T10:06:55;3.80;;;3.08;;
17662;SDS011;8950;56.892;15.090;2023-05-14T10:09:24;7.03;;;2.88;;
17662;SDS011;8950;56.892;15.090;2023-05-14T10:11:54;4.00;;;3.30;;
17662;SDS011;8950;56.892;15.090;2023-05-14T10:14:25;12.40;;;3.58;;
17662;SDS011;8950;56.892;15.090;2023-05-14T10:16:52;4.88;;;3.47;;
17662;SDS011;8950;56.892;15.090;2023-05-14T10:19:19;7.55;;;3.97;;
17662;SDS011;8950;56.892;15.090;2023-05-14T10:21:46;4.80;;;3.17;;
17662;SDS011;8950;56.892;15.090;2023-05-14T10:24:13;8.25;;;3.28;;
17662;SDS011;8950;56.892;15.090;2023-05-14T10:26:40;4.57;;;3.08;;
17662;SDS011;8950;56.892;15.090;2023-05-14T10:29:09;4.45;;;3.30;;
17662;SDS011;8950;56.892;15.090;2023-05-14T10:31:45;7.10;;;2.90;;
17662;SDS011;8950;56.892;15.090;2023-05-14T10:36:53;3.78;;;2.95;;
17662;SDS011;8950;56.892;15.090;2023-05-14T10:39:19;9.88;;;3.65;;
17662;SDS011;8950;56.892;15.090;2023-05-14T10:41:46;3.63;;;3.20;;
17662;SDS011;8950;56.892;15.090;2023-05-14T10:44:14;4.25;;;2.58;;
17662;SDS011;8950;56.892;15.090;2023-05-14T10:46:41;4.25;;;3.20;;
17662;SDS011;8950;56.892;15.090;2023-05-14T10:49:07;4.20;;;3.10;;
17662;SDS011;8950;56.892;15.090;2023-05-14T10:51:34;3.83;;;3.17;;
17662;SDS011;8950;56.892;15.090;2023-05-14T10:54:01;4.28;;;3.08;;
17662;SDS011;8950;56.892;15.090;2023-05-14T10:56:27;4.25;;;2.90;;
17662;SDS011;8950;56.892;15.090;2023-05-14T10:58:56;4.50;;;3.00;;
17662;SDS011;8950;56.892;15.090;2023-05-14T11:01:24;5.72;;;3.38;;
17662;SDS011;8950;56.892;15.090;2023-05-14T11:03:52;5.75;;;2.90;;
17662;SDS011;8950;56.892;15.090;2023-05-14T11:06:19;8.55;;;3.42;;
17662;SDS011;8950;56.892;15.090;2023-05-14T11:08:46;3.40;;;3.00;;
17662;SDS011;8950;56.892;15.090;2023-05-14T11:11:13;5.35;;;2.90;;
17662;SDS011;8950;56.892;15.090;2023-05-14T11:13:39;5.10;;;3.03;;
17662;SDS011;8950;56.892;15.090;2023-05-14T11:16:06;3.75;;;2.95;;
17662;SDS011;8950;56.892;15.090;2023-05-14T11:18:34;4.55;;;3.35;;
17662;SDS011;8950;56.892;15.090;2023-05-14T11:21:02;3.38;;;3.08;;
17662;SDS011;8950;56.892;15.090;2023-05-14T11:23:29;5.03;;;3.05;;
17662;SDS011;8950;56.892;15.090;2023-05-14T11:25:55;7.35;;;3.58;;
17662;SDS011;8950;56.892;15.090;2023-05-14T11:28:22;3.40;;;3.10;;
17662;SDS011;8950;56.892;15.090;2023-05-14T11:30:49;3.88;;;3.17;;
17662;SDS011;8950;56.892;15.090;2023-05-14T11:33:15;3.92;;;3.42;;
17662;SDS011;8950;56.892;15.090;2023-05-14T11:35:44;4.80;;;3.20;;
17662;SDS011;8950;56.892;15.090;2023-05-14T11:38:14;3.45;;;3.15;;
17662;SDS011;8950;56.892;15.090;2023-05-14T11:40:40;4.68;;;3.00;;
17662;SDS011;8950;56.892;15.090;2023-05-14T11:43:06;3.95;;;3.35;;
17662;SDS011;8950;56.892;15.090;2023-05-14T11:45:33;3.30;;;3.00;;
17662;SDS011;8950;56.892;15.090;2023-05-14T11:48:00;5.22;;;3.17;;
17662;SDS011;8950;56.892;15.090;2023-05-14T11:50:27;3.72;;;3.08;;
17662;SDS011;8950;56.892;15.090;2023-05-14T11:52:56;3.35;;;3.05;;
17662;SDS011;8950;56.892;15.090;2023-05-14T11:55:22;6.25;;;3.30;;
17662;SDS011;8950;56.892;15.090;2023-05-14T11:57:49;5.50;;;3.60;;
17662;SDS011;8950;56.892;15.090;2023-05-14T12:00:16;6.95;;;3.28;;
17662;SDS011;8950;56.892;15.090;2023-05-14T12:02:46;5.45;;;2.72;;
17662;SDS011;8950;56.892;15.090;2023-05-14T12:05:12;4.80;;;3.33;;
17662;SDS011;8950;56.892;15.090;2023-05-14T12:07:39;4.18;;;2.88;;
17662;SDS011;8950;56.892;15.090;2023-05-14T12:10:10;4.00;;;2.97;;
17662;SDS011;8950;56.892;15.090;2023-05-14T12:12:37;12.20;;;3.88;;
17662;SDS011;8950;56.892;15.090;2023-05-14T12:15:09;6.50;;;3.17;;
17662;SDS011;8950;56.892;15.090;2023-05-14T12:17:36;5.15;;;3.10;;
17662;SDS011;8950;56.892;15.090;2023-05-14T12:20:03;4.53;;;3.40;;
17662;SDS011;8950;56.892;15.090;2023-05-14T12:22:30;4.88;;;3.20;;
17662;SDS011;8950;56.892;15.090;2023-05-14T12:24:57;8.82;;;3.38;;
17662;SDS011;8950;56.892;15.090;2023-05-14T12:27:27;7.10;;;3.58;;
17662;SDS011;8950;56.892;15.090;2023-05-14T12:29:57;3.50;;;3.20;;
17662;SDS011;8950;56.892;15.090;2023-05-14T12:32:24;3.72;;;2.97;;
17662;SDS011;8950;56.892;15.090;2023-05-14T12:34:51;5.28;;;3.20;;
17662;SDS011;8950;56.892;15.090;2023-05-14T12:37:18;5.95;;;3.03;;
17662;SDS011;8950;56.892;15.090;2023-05-14T12:39:44;4.18;;;3.00;;
17662;SDS011;8950;56.892;15.090;2023-05-14T12:42:11;5.60;;;3.05;;
17662;SDS011;8950;56.892;15.090;2023-05-14T12:44:39;6.90;;;3.42;;
17662;SDS011;8950;56.892;15.090;2023-05-14T12:47:05;7.25;;;3.00;;
17662;SDS011;8950;56.892;15.090;2023-05-14T12:49:31;4.95;;;3.13;;
17662;SDS011;8950;56.892;15.090;2023-05-14T12:51:58;3.03;;;2.83;;
17662;SDS011;8950;56.892;15.090;2023-05-14T12:54:24;4.22;;;3.10;;
17662;SDS011;8950;56.892;15.090;2023-05-14T12:56:50;3.83;;;3.00;;
17662;SDS011;8950;56.892;15.090;2023-05-14T12:59:17;5.60;;;3.45;;
17662;SDS011;8950;56.892;15.090;2023-05-14T13:01:45;5.32;;;3.58;;
17662;SDS011;8950;56.892;15.090;2023-05-14T13:04:12;3.83;;;3.25;;
17662;SDS011;8950;56.892;15.090;2023-05-14T13:06:38;3.33;;;3.03;;
17662;SDS011;8950;56.892;15.090;2023-05-14T13:09:05;6.05;;;3.25;;
17662;SDS011;8950;56.892;15.090;2023-05-14T13:11:31;5.32;;;3.33;;
17662;SDS011;8950;56.892;15.090;2023-05-14T13:13:58;7.03;;;3.20;;
17662;SDS011;8950;56.892;15.090;2023-05-14T13:16:24;3.78;;;3.20;;
17662;SDS011;8950;56.892;15.090;2023-05-14T13:18:52;3.50;;;3.20;;
17662;SDS011;8950;56.892;15.090;2023-05-14T13:21:19;5.32;;;3.75;;
17662;SDS011;8950;56.892;15.090;2023-05-14T13:23:45;7.15;;;3.33;;
17662;SDS011;8950;56.892;15.090;2023-05-14T13:26:11;5.63;;;2.92;;
17662;SDS011;8950;56.892;15.090;2023-05-14T13:28:38;4.22;;;3.13;;
17662;SDS011;8950;56.892;15.090;2023-05-14T13:31:05;4.32;;;3.40;;
17662;SDS011;8950;56.892;15.090;2023-05-14T13:33:33;4.30;;;3.33;;
17662;SDS011;8950;56.892;15.090;2023-05-14T13:36:01;3.35;;;3.05;;
17662;SDS011;8950;56.892;15.090;2023-05-14T13:38:27;6.82;;;3.30;;
17662;SDS011;8950;56.892;15.090;2023-05-14T13:40:54;6.85;;;3.10;;
17662;SDS011;8950;56.892;15.090;2023-05-14T13:43:25;3.65;;;3.20;;
17662;SDS011;8950;56.892;15.090;2023-05-14T13:45:52;6.25;;;3.10;;
17662;SDS011;8950;56.892;15.090;2023-05-14T13:48:18;4.53;;;3.10;;
17662;SDS011;8950;56.892;15.090;2023-05-14T13:50:45;4.28;;;3.22;;
17662;SDS011;8950;56.892;15.090;2023-05-14T13:53:13;3.60;;;3.30;;
17662;SDS011;8950;56.892;15.090;2023-05-14T13:55:39;3.50;;;3.22;;
17662;SDS011;8950;56.892;15.090;2023-05-14T13:58:06;124.70;;;15.27;;
17662;SDS011;8950;56.892;15.090;2023-05-14T14:00:34;5.22;;;3.40;;
17662;SDS011;8950;56.892;15.090;2023-05-14T14:03:00;6.35;;;3.40;;
17662;SDS011;8950;56.892;15.090;2023-05-14T14:05:26;4.63;;;3.53;;
17662;SDS011;8950;56.892;15.090;2023-05-14T14:07:53;7.85;;;3.97;;
17662;SDS011;8950;56.892;15.090;2023-05-14T14:10:21;4.80;;;3.58;;
17662;SDS011;8950;56.892;15.090;2023-05-14T14:12:48;4.75;;;3.80;;
17662;SDS011;8950;56.892;15.090;2023-05-14T14:15:14;5.13;;;3.67;;
17662;SDS011;8950;56.892;15.090;2023-05-14T14:17:41;5.38;;;3.30;;
17662;SDS011;8950;56.892;15.090;2023-05-14T14:20:07;5.00;;;3.50;;
17662;SDS011;8950;56.892;15.090;2023-05-14T14:22:35;5.72;;;3.83;;
17662;SDS011;8950;56.892;15.090;2023-05-14T14:25:01;5.60;;;3.58;;
17662;SDS011;8950;56.892;15.090;2023-05-14T14:27:29;5.00;;;3.67;;
17662;SDS011;8950;56.892;15.090;2023-05-14T14:29:58;7.85;;;3.33;;
17662;SDS011;8950;56.892;15.090;2023-05-14T14:32:24;6.10;;;3.60;;
17662;SDS011;8950;56.892;15.090;2023-05-14T14:34:50;6.32;;;3.88;;
17662;SDS011;8950;56.892;15.090;2023-05-14T14:37:17;5.03;;;3.65;;
17662;SDS011;8950;56.892;15.090;2023-05-14T14:39:46;4.30;;;3.30;;
17662;SDS011;8950;56.892;15.090;2023-05-14T14:42:14;9.70;;;3.45;;
17662;SDS011;8950;56.892;15.090;2023-05-14T14:44:42;5.47;;;3.47;;
17662;SDS011;8950;56.892;15.090;2023-05-14T14:47:09;5.78;;;3.40;;
17662;SDS011;8950;56.892;15.090;2023-05-14T14:49:35;5.50;;;3.28;;